sensor_id;sensor_type;location;lat;lon;timestamp;pressure;altitude;pressure_sealevel;temperature;humidity
68137;BME280;54939;50.826;9.030;2023-02-19T00:00:29;98842.94;;;8.87;77.53
68137;BME280;54939;50.826;9.030;2023-02-19T00:00:59;98841.25;;;8.86;76.63
68137;BME280;54939;50.826;9.030;2023-02-19T00:01:34;98842.09;;;8.86;77.04
68137;BME280;54939;50.826;9.030;2023-02-19T00:02:04;98828.78;;;8.86;76.79
68137;BME280;54939;50.826;9.030;2023-02-19T00:02:35;98832.41;;;8.85;77.69
68137;BME280;54939;50.826;9.030;2023-02-19T00:03:05;98829.63;;;8.87;77.33
68137;BME280;54939;50.826;9.030;2023-02-19T00:03:35;98826.97;;;8.87;76.78
68137;BME280;54939;50.826;9.030;2023-02-19T00:04:07;98829.63;;;8.87;77.34
68137;BME280;54939;50.826;9.030;2023-02-19T00:04:38;98823.44;;;8.86;77.41
68137;BME280;54939;50.826;9.030;2023-02-19T00:05:08;98826.97;;;8.87;77.38
68137;BME280;54939;50.826;9.030;2023-02-19T00:05:38;98822.59;;;8.86;76.79
68137;BME280;54939;50.826;9.030;2023-02-19T00:06:09;98820.78;;;8.86;77.07
68137;BME280;54939;50.826;9.030;2023-02-19T00:06:40;98816.31;;;8.87;76.92
68137;BME280;54939;50.826;9.030;2023-02-19T00:07:10;98809.16;;;8.87;77.55
68137;BME280;54939;50.826;9.030;2023-02-19T00:07:40;98812.81;;;8.86;76.97
68137;BME280;54939;50.826;9.030;2023-02-19T00:08:12;98799.66;;;8.85;76.96
68137;BME280;54939;50.826;9.030;2023-02-19T00:08:42;98799.50;;;8.86;77.50
68137;BME280;54939;50.826;9.030;2023-02-19T00:09:13;98804.81;;;8.86;77.02
68137;BME280;54939;50.826;9.030;2023-02-19T00:09:43;98809.31;;;8.86;76.78
68137;BME280;54939;50.826;9.030;2023-02-19T00:10:13;98810.16;;;8.86;77.47
68137;BME280;54939;50.826;9.030;2023-02-19T00:10:44;98815.47;;;8.86;77.30
68137;BME280;54939;50.826;9.030;2023-02-19T00:11:15;98803.97;;;8.86;77.29
68137;BME280;54939;50.826;9.030;2023-02-19T00:11:46;98804.81;;;8.86;76.98
68137;BME280;54939;50.826;9.030;2023-02-19T00:12:16;98812.81;;;8.86;77.09
68137;BME280;54939;50.826;9.030;2023-02-19T00:12:46;98810.16;;;8.86;77.35
68137;BME280;54939;50.826;9.030;2023-02-19T00:13:16;98812.66;;;8.88;77.33
68137;BME280;54939;50.826;9.030;2023-02-19T00:13:49;98818.00;;;8.88;77.63
68137;BME280;54939;50.826;9.030;2023-02-19T00:14:20;98819.81;;;8.87;77.72
68137;BME280;54939;50.826;9.030;2023-02-19T00:14:50;98810.16;;;8.86;77.04
68137;BME280;54939;50.826;9.030;2023-02-19T00:15:20;98815.47;;;8.86;77.26
68137;BME280;54939;50.826;9.030;2023-02-19T00:15:50;98820.78;;;8.86;77.11
68137;BME280;54939;50.826;9.030;2023-02-19T00:16:22;98823.44;;;8.86;77.07
68137;BME280;54939;50.826;9.030;2023-02-19T00:16:52;98816.31;;;8.87;77.69
68137;BME280;54939;50.826;9.030;2023-02-19T00:17:22;98815.47;;;8.86;77.58
68137;BME280;54939;50.826;9.030;2023-02-19T00:17:52;98817.28;;;8.86;77.64
68137;BME280;54939;50.826;9.030;2023-02-19T00:18:22;98818.97;;;8.87;77.02
68137;BME280;54939;50.826;9.030;2023-02-19T00:18:53;98815.47;;;8.86;77.07
68137;BME280;54939;50.826;9.030;2023-02-19T00:19:24;98814.63;;;8.86;77.60
68137;BME280;54939;50.826;9.030;2023-02-19T00:19:54;98825.44;;;8.84;77.39
68137;BME280;54939;50.826;9.030;2023-02-19T00:20:24;98822.59;;;8.86;77.04
68137;BME280;54939;50.826;9.030;2023-02-19T00:20:54;98822.59;;;8.86;77.25
68137;BME280;54939;50.826;9.030;2023-02-19T00:21:25;98819.09;;;8.85;76.95
68137;BME280;54939;50.826;9.030;2023-02-19T00:21:55;98819.94;;;8.86;76.92
68137;BME280;54939;50.826;9.030;2023-02-19T00:22:26;98831.44;;;8.86;76.92
68137;BME280;54939;50.826;9.030;2023-02-19T00:22:56;98823.63;;;8.85;77.30
68137;BME280;54939;50.826;9.030;2023-02-19T00:23:26;98826.13;;;8.86;76.99
68137;BME280;54939;50.826;9.030;2023-02-19T00:23:58;98830.59;;;8.86;77.20
68137;BME280;54939;50.826;9.030;2023-02-19T00:24:29;98828.78;;;8.86;77.18
68137;BME280;54939;50.826;9.030;2023-02-19T00:24:59;98819.94;;;8.86;76.95
68137;BME280;54939;50.826;9.030;2023-02-19T00:25:29;98821.63;;;8.87;76.84
68137;BME280;54939;50.826;9.030;2023-02-19T00:26:06;98816.44;;;8.85;77.39
68137;BME280;54939;50.826;9.030;2023-02-19T00:26:37;98819.94;;;8.86;77.56
68137;BME280;54939;50.826;9.030;2023-02-19T00:27:08;98808.47;;;8.85;77.19
68137;BME280;54939;50.826;9.030;2023-02-19T00:27:39;98806.63;;;8.86;77.83
68137;BME280;54939;50.826;9.030;2023-02-19T00:28:09;98803.97;;;8.86;77.13
68137;BME280;54939;50.826;9.030;2023-02-19T00:28:39;98795.16;;;8.85;77.31
68137;BME280;54939;50.826;9.030;2023-02-19T00:29:13;98796.00;;;8.86;77.07
68137;BME280;54939;50.826;9.030;2023-02-19T00:29:43;98788.16;;;8.84;77.08
68137;BME280;54939;50.826;9.030;2023-02-19T00:30:13;98796.16;;;8.84;77.00
68137;BME280;54939;50.826;9.030;2023-02-19T00:30:43;98798.81;;;8.84;77.98
68137;BME280;54939;50.826;9.030;2023-02-19T00:31:44;98801.47;;;8.84;77.43
68137;BME280;54939;50.826;9.030;2023-02-19T00:32:14;98803.13;;;8.85;77.38
68137;BME280;54939;50.826;9.030;2023-02-19T00:32:48;98799.50;;;8.86;77.59
68137;BME280;54939;50.826;9.030;2023-02-19T00:33:18;98805.66;;;8.87;77.02
68137;BME280;54939;50.826;9.030;2023-02-19T00:33:49;98802.16;;;8.86;77.06
68137;BME280;54939;50.826;9.030;2023-02-19T00:34:20;98805.66;;;8.87;77.29
68137;BME280;54939;50.826;9.030;2023-02-19T00:34:50;98803.84;;;8.87;77.50
68137;BME280;54939;50.826;9.030;2023-02-19T00:35:20;98803.84;;;8.87;77.01
68137;BME280;54939;50.826;9.030;2023-02-19T00:35:51;98797.69;;;8.87;77.25
68137;BME280;54939;50.826;9.030;2023-02-19T00:36:21;98802.16;;;8.86;77.30
68137;BME280;54939;50.826;9.030;2023-02-19T00:36:51;98796.84;;;8.86;77.33
68137;BME280;54939;50.826;9.030;2023-02-19T00:37:21;98795.00;;;8.87;77.00
68137;BME280;54939;50.826;9.030;2023-02-19T00:37:51;98800.34;;;8.87;77.02
68137;BME280;54939;50.826;9.030;2023-02-19T00:38:21;98794.16;;;8.86;77.05
68137;BME280;54939;50.826;9.030;2023-02-19T00:38:52;98795.00;;;8.87;77.45
68137;BME280;54939;50.826;9.030;2023-02-19T00:39:22;98799.50;;;8.86;77.52
68137;BME280;54939;50.826;9.030;2023-02-19T00:39:52;98794.16;;;8.86;77.06
68137;BME280;54939;50.826;9.030;2023-02-19T00:40:22;98800.34;;;8.87;77.58
68137;BME280;54939;50.826;9.030;2023-02-19T00:40:54;98798.50;;;8.87;77.05
68137;BME280;54939;50.826;9.030;2023-02-19T00:41:25;98795.16;;;8.85;76.74
68137;BME280;54939;50.826;9.030;2023-02-19T00:41:55;98795.16;;;8.85;77.62
68137;BME280;54939;50.826;9.030;2023-02-19T00:42:25;98794.16;;;8.86;77.44
68137;BME280;54939;50.826;9.030;2023-02-19T00:42:56;98799.66;;;8.85;77.08
68137;BME280;54939;50.826;9.030;2023-02-19T00:43:26;98796.00;;;8.86;76.93
68137;BME280;54939;50.826;9.030;2023-02-19T00:43:57;98797.69;;;8.87;77.33
68137;BME280;54939;50.826;9.030;2023-02-19T00:44:27;98793.31;;;8.86;77.11
68137;BME280;54939;50.826;9.030;2023-02-19T00:44:57;98795.16;;;8.85;77.02
68137;BME280;54939;50.826;9.030;2023-02-19T00:45:27;98792.47;;;8.85;77.52
68137;BME280;54939;50.826;9.030;2023-02-19T00:45:58;98796.00;;;8.86;77.12
68137;BME280;54939;50.826;9.030;2023-02-19T00:46:29;98788.84;;;8.86;77.56
68137;BME280;54939;50.826;9.030;2023-02-19T00:47:00;98793.19;;;8.87;77.21
68137;BME280;54939;50.826;9.030;2023-02-19T00:47:30;98787.03;;;8.87;76.75
68137;BME280;54939;50.826;9.030;2023-02-19T00:48:00;98790.53;;;8.87;77.20
68137;BME280;54939;50.826;9.030;2023-02-19T00:48:30;98792.22;;;8.88;76.78
68137;BME280;54939;50.826;9.030;2023-02-19T00:49:00;98789.69;;;8.87;76.85
68137;BME280;54939;50.826;9.030;2023-02-19T00:49:31;98793.19;;;8.87;77.01
68137;BME280;54939;50.826;9.030;2023-02-19T00:50:01;98789.69;;;8.87;77.24
68137;BME280;54939;50.826;9.030;2023-02-19T00:50:31;98792.34;;;8.87;76.92
68137;BME280;54939;50.826;9.030;2023-02-19T00:51:01;98789.69;;;8.87;77.19
68137;BME280;54939;50.826;9.030;2023-02-19T00:51:33;98781.69;;;8.87;77.39
68137;BME280;54939;50.826;9.030;2023-02-19T00:52:03;98782.53;;;8.87;77.40
68137;BME280;54939;50.826;9.030;2023-02-19T00:52:33;98790.53;;;8.87;77.43
68137;BME280;54939;50.826;9.030;2023-02-19T00:53:04;98779.03;;;8.87;77.14
68137;BME280;54939;50.826;9.030;2023-02-19T00:53:34;98790.53;;;8.87;77.24
68137;BME280;54939;50.826;9.030;2023-02-19T00:54:04;98791.50;;;8.86;77.07
68137;BME280;54939;50.826;9.030;2023-02-19T00:54:35;98792.34;;;8.87;77.09
68137;BME280;54939;50.826;9.030;2023-02-19T00:55:05;98780.00;;;8.86;76.62
68137;BME280;54939;50.826;9.030;2023-02-19T00:55:35;98790.53;;;8.87;76.82
68137;BME280;54939;50.826;9.030;2023-02-19T00:56:05;98787.88;;;8.87;77.16
68137;BME280;54939;50.826;9.030;2023-02-19T00:56:36;98789.56;;;8.88;76.78
68137;BME280;54939;50.826;9.030;2023-02-19T00:57:06;98789.56;;;8.88;76.67
68137;BME280;54939;50.826;9.030;2023-02-19T00:57:36;98789.56;;;8.88;77.29
68137;BME280;54939;50.826;9.030;2023-02-19T00:58:06;98790.41;;;8.89;76.87
68137;BME280;54939;50.826;9.030;2023-02-19T00:58:36;98786.91;;;8.88;76.95
68137;BME280;54939;50.826;9.030;2023-02-19T00:59:07;98784.22;;;8.88;76.89
68137;BME280;54939;50.826;9.030;2023-02-19T00:59:37;98788.72;;;8.88;77.14
68137;BME280;54939;50.826;9.030;2023-02-19T01:00:07;98787.88;;;8.87;76.78
68137;BME280;54939;50.826;9.030;2023-02-19T01:00:38;98783.38;;;8.88;77.17
68137;BME280;54939;50.826;9.030;2023-02-19T01:01:09;98779.03;;;8.87;77.04
68137;BME280;54939;50.826;9.030;2023-02-19T01:01:39;98781.69;;;8.87;77.05
68137;BME280;54939;50.826;9.030;2023-02-19T01:02:10;98789.56;;;8.88;77.08
68137;BME280;54939;50.826;9.030;2023-02-19T01:02:40;98786.91;;;8.88;77.18
68137;BME280;54939;50.826;9.030;2023-02-19T01:03:10;98785.22;;;8.87;76.57
68137;BME280;54939;50.826;9.030;2023-02-19T01:03:40;98787.03;;;8.87;77.82
68137;BME280;54939;50.826;9.030;2023-02-19T01:04:11;98785.22;;;8.87;77.42
68137;BME280;54939;50.826;9.030;2023-02-19T01:04:41;98785.22;;;8.87;76.88
68137;BME280;54939;50.826;9.030;2023-02-19T01:05:11;98779.03;;;8.87;76.69
68137;BME280;54939;50.826;9.030;2023-02-19T01:05:41;98779.88;;;8.87;76.58
68137;BME280;54939;50.826;9.030;2023-02-19T01:06:13;98777.34;;;8.86;77.01
68137;BME280;54939;50.826;9.030;2023-02-19T01:06:43;98782.53;;;8.87;76.57
68137;BME280;54939;50.826;9.030;2023-02-19T01:07:13;98781.56;;;8.88;76.78
68137;BME280;54939;50.826;9.030;2023-02-19T01:07:44;98781.69;;;8.87;77.04
68137;BME280;54939;50.826;9.030;2023-02-19T01:08:14;98778.19;;;8.86;77.19
68137;BME280;54939;50.826;9.030;2023-02-19T01:08:44;98777.22;;;8.87;76.97
68137;BME280;54939;50.826;9.030;2023-02-19T01:09:14;98781.69;;;8.87;76.77
68137;BME280;54939;50.826;9.030;2023-02-19T01:09:44;98777.34;;;8.86;77.04
68137;BME280;54939;50.826;9.030;2023-02-19T01:10:15;98778.19;;;8.86;77.36
68137;BME280;54939;50.826;9.030;2023-02-19T01:10:45;98779.03;;;8.87;76.99
68137;BME280;54939;50.826;9.030;2023-02-19T01:11:16;98779.03;;;8.87;77.51
68137;BME280;54939;50.826;9.030;2023-02-19T01:11:46;98771.06;;;8.87;76.75
68137;BME280;54939;50.826;9.030;2023-02-19T01:12:16;98773.72;;;8.87;77.42
68137;BME280;54939;50.826;9.030;2023-02-19T01:12:46;98774.69;;;8.86;77.39
68137;BME280;54939;50.826;9.030;2023-02-19T01:13:17;98771.06;;;8.87;77.43
68137;BME280;54939;50.826;9.030;2023-02-19T01:13:47;98774.56;;;8.87;77.17
68137;BME280;54939;50.826;9.030;2023-02-19T01:14:17;98775.53;;;8.86;76.98
68137;BME280;54939;50.826;9.030;2023-02-19T01:14:47;98773.59;;;8.88;77.09
68137;BME280;54939;50.826;9.030;2023-02-19T01:15:17;98772.88;;;8.86;77.23
68137;BME280;54939;50.826;9.030;2023-02-19T01:15:48;98774.56;;;8.87;77.13
68137;BME280;54939;50.826;9.030;2023-02-19T01:16:19;98766.56;;;8.87;77.08
68137;BME280;54939;50.826;9.030;2023-02-19T01:16:49;98771.91;;;8.87;77.38
68137;BME280;54939;50.826;9.030;2023-02-19T01:17:20;98763.06;;;8.87;77.18
68137;BME280;54939;50.826;9.030;2023-02-19T01:17:50;98771.91;;;8.87;77.31
68137;BME280;54939;50.826;9.030;2023-02-19T01:18:20;98770.22;;;8.86;77.07
68137;BME280;54939;50.826;9.030;2023-02-19T01:18:50;98769.25;;;8.87;76.98
68137;BME280;54939;50.826;9.030;2023-02-19T01:19:20;98766.56;;;8.87;77.08
68137;BME280;54939;50.826;9.030;2023-02-19T01:19:51;98764.88;;;8.86;77.64
68137;BME280;54939;50.826;9.030;2023-02-19T01:20:21;98771.06;;;8.87;77.36
68137;BME280;54939;50.826;9.030;2023-02-19T01:20:51;98770.22;;;8.86;76.79
68137;BME280;54939;50.826;9.030;2023-02-19T01:21:22;98768.41;;;8.87;77.36
68137;BME280;54939;50.826;9.030;2023-02-19T01:21:53;98768.41;;;8.87;77.05
68137;BME280;54939;50.826;9.030;2023-02-19T01:22:23;98766.72;;;8.86;77.58
68137;BME280;54939;50.826;9.030;2023-02-19T01:22:53;98764.88;;;8.86;77.41
68137;BME280;54939;50.826;9.030;2023-02-19T01:23:23;98772.88;;;8.86;77.67
68137;BME280;54939;50.826;9.030;2023-02-19T01:23:54;98766.72;;;8.86;76.99
68137;BME280;54939;50.826;9.030;2023-02-19T01:24:24;98767.56;;;8.86;77.43
68137;BME280;54939;50.826;9.030;2023-02-19T01:24:54;98771.06;;;8.87;77.40
68137;BME280;54939;50.826;9.030;2023-02-19T01:25:24;98767.56;;;8.86;77.56
68137;BME280;54939;50.826;9.030;2023-02-19T01:25:55;98761.38;;;8.86;77.46
68137;BME280;54939;50.826;9.030;2023-02-19T01:26:29;98770.22;;;8.86;77.17
68137;BME280;54939;50.826;9.030;2023-02-19T01:26:59;98764.88;;;8.86;77.00
68137;BME280;54939;50.826;9.030;2023-02-19T01:27:30;98766.72;;;8.86;77.42
68137;BME280;54939;50.826;9.030;2023-02-19T01:28:00;98778.19;;;8.86;77.27
68137;BME280;54939;50.826;9.030;2023-02-19T01:28:30;98774.69;;;8.86;77.07
68137;BME280;54939;50.826;9.030;2023-02-19T01:29:00;98774.69;;;8.86;77.41
68137;BME280;54939;50.826;9.030;2023-02-19T01:29:30;98771.06;;;8.87;77.37
68137;BME280;54939;50.826;9.030;2023-02-19T01:30:01;98774.69;;;8.86;77.23
68137;BME280;54939;50.826;9.030;2023-02-19T01:30:33;98771.06;;;8.87;77.47
68137;BME280;54939;50.826;9.030;2023-02-19T01:31:04;98765.72;;;8.87;77.00
68137;BME280;54939;50.826;9.030;2023-02-19T01:31:34;98765.72;;;8.87;77.06
68137;BME280;54939;50.826;9.030;2023-02-19T01:32:05;98764.88;;;8.86;77.24
68137;BME280;54939;50.826;9.030;2023-02-19T01:32:35;98763.06;;;8.87;77.04
68137;BME280;54939;50.826;9.030;2023-02-19T01:33:06;98761.25;;;8.87;77.30
68137;BME280;54939;50.826;9.030;2023-02-19T01:33:37;98758.72;;;8.86;76.90
68137;BME280;54939;50.826;9.030;2023-02-19T01:34:08;98759.56;;;8.86;77.25
68137;BME280;54939;50.826;9.030;2023-02-19T01:34:39;98758.72;;;8.86;77.23
68137;BME280;54939;50.826;9.030;2023-02-19T01:35:09;98756.91;;;8.86;77.18
68137;BME280;54939;50.826;9.030;2023-02-19T01:35:39;98755.09;;;8.87;77.05
68137;BME280;54939;50.826;9.030;2023-02-19T01:36:09;98755.78;;;8.89;77.05
68137;BME280;54939;50.826;9.030;2023-02-19T01:36:40;98756.63;;;8.89;77.62
68137;BME280;54939;50.826;9.030;2023-02-19T01:37:10;98758.44;;;8.89;77.14
68137;BME280;54939;50.826;9.030;2023-02-19T01:37:41;98754.94;;;8.88;77.49
68137;BME280;54939;50.826;9.030;2023-02-19T01:38:11;98757.59;;;8.88;76.73
68137;BME280;54939;50.826;9.030;2023-02-19T01:38:41;98760.28;;;8.88;77.05
68137;BME280;54939;50.826;9.030;2023-02-19T01:39:12;98754.09;;;8.88;76.84
68137;BME280;54939;50.826;9.030;2023-02-19T01:39:42;98754.94;;;8.88;77.29
68137;BME280;54939;50.826;9.030;2023-02-19T01:40:12;98760.41;;;8.87;77.01
68137;BME280;54939;50.826;9.030;2023-02-19T01:40:42;98750.59;;;8.87;77.20
68137;BME280;54939;50.826;9.030;2023-02-19T01:41:14;98750.59;;;8.87;77.27
68137;BME280;54939;50.826;9.030;2023-02-19T01:41:44;98749.75;;;8.87;77.18
68137;BME280;54939;50.826;9.030;2023-02-19T01:42:15;98757.75;;;8.87;76.95
68137;BME280;54939;50.826;9.030;2023-02-19T01:42:48;98752.41;;;8.87;77.02
68137;BME280;54939;50.826;9.030;2023-02-19T01:43:18;98754.94;;;8.88;77.24
68137;BME280;54939;50.826;9.030;2023-02-19T01:44:01;98751.44;;;8.88;77.25
68137;BME280;54939;50.826;9.030;2023-02-19T01:45:51;98746.97;;;8.88;76.99
68137;BME280;54939;50.826;9.030;2023-02-19T01:46:24;98747.94;;;8.87;76.93
68137;BME280;54939;50.826;9.030;2023-02-19T01:46:54;98747.81;;;8.89;77.39
68137;BME280;54939;50.826;9.030;2023-02-19T01:47:26;98747.09;;;8.87;76.97
68137;BME280;54939;50.826;9.030;2023-02-19T01:48:34;98745.28;;;8.87;76.92
68137;BME280;54939;50.826;9.030;2023-02-19T01:49:25;98746.97;;;8.88;76.91
68137;BME280;54939;50.826;9.030;2023-02-19T01:49:57;98741.63;;;8.88;76.94
68137;BME280;54939;50.826;9.030;2023-02-19T01:50:27;98736.31;;;8.88;76.46
68137;BME280;54939;50.826;9.030;2023-02-19T01:51:01;98731.13;;;8.87;76.89
68137;BME280;54939;50.826;9.030;2023-02-19T01:51:35;98730.28;;;8.86;77.22
68137;BME280;54939;50.826;9.030;2023-02-19T01:52:09;98732.94;;;8.86;76.92
68137;BME280;54939;50.826;9.030;2023-02-19T01:52:41;98737.28;;;8.87;77.26
68137;BME280;54939;50.826;9.030;2023-02-19T01:53:12;98733.78;;;8.87;77.20
68137;BME280;54939;50.826;9.030;2023-02-19T01:53:44;98741.78;;;8.87;77.73
68137;BME280;54939;50.826;9.030;2023-02-19T01:54:15;98739.09;;;8.87;77.34
68137;BME280;54939;50.826;9.030;2023-02-19T01:54:46;98741.78;;;8.87;76.82
68137;BME280;54939;50.826;9.030;2023-02-19T01:55:17;98745.28;;;8.87;76.98
68137;BME280;54939;50.826;9.030;2023-02-19T01:55:49;98739.94;;;8.87;76.97
68137;BME280;54939;50.826;9.030;2023-02-19T01:56:21;98738.25;;;8.86;77.20
68137;BME280;54939;50.826;9.030;2023-02-19T01:56:52;98734.75;;;8.86;76.74
68137;BME280;54939;50.826;9.030;2023-02-19T01:57:24;98738.97;;;8.88;76.57
68137;BME280;54939;50.826;9.030;2023-02-19T01:57:55;98739.94;;;8.87;77.01
68137;BME280;54939;50.826;9.030;2023-02-19T01:58:27;98739.09;;;8.87;76.77
68137;BME280;54939;50.826;9.030;2023-02-19T01:58:58;98741.63;;;8.88;77.12
68137;BME280;54939;50.826;9.030;2023-02-19T01:59:30;98738.97;;;8.88;77.03
68137;BME280;54939;50.826;9.030;2023-02-19T02:00:02;98738.00;;;8.89;76.51
68137;BME280;54939;50.826;9.030;2023-02-19T02:00:32;98731.81;;;8.89;77.03
68137;BME280;54939;50.826;9.030;2023-02-19T02:01:03;98731.81;;;8.89;76.71
68137;BME280;54939;50.826;9.030;2023-02-19T02:01:36;98729.16;;;8.89;77.13
68137;BME280;54939;50.826;9.030;2023-02-19T02:02:07;98727.63;;;8.86;77.15
68137;BME280;54939;50.826;9.030;2023-02-19T02:02:38;98725.78;;;8.87;76.64
68137;BME280;54939;50.826;9.030;2023-02-19T02:03:09;98733.66;;;8.88;76.71
68137;BME280;54939;50.826;9.030;2023-02-19T02:03:41;98729.31;;;8.87;76.91
68137;BME280;54939;50.826;9.030;2023-02-19T02:04:13;98726.63;;;8.87;77.20
68137;BME280;54939;50.826;9.030;2023-02-19T02:04:45;98724.97;;;8.86;77.13
68137;BME280;54939;50.826;9.030;2023-02-19T02:05:29;98724.97;;;8.86;76.98
68137;BME280;54939;50.826;9.030;2023-02-19T02:06:07;98719.63;;;8.86;76.95
68137;BME280;54939;50.826;9.030;2023-02-19T02:06:48;98724.13;;;8.86;76.88
68137;BME280;54939;50.826;9.030;2023-02-19T02:07:18;98726.63;;;8.87;77.15
68137;BME280;54939;50.826;9.030;2023-02-19T02:08:07;98718.78;;;8.86;76.78
68137;BME280;54939;50.826;9.030;2023-02-19T02:08:57;98725.78;;;8.87;77.03
68137;BME280;54939;50.826;9.030;2023-02-19T02:09:46;98715.28;;;8.85;77.52
68137;BME280;54939;50.826;9.030;2023-02-19T02:10:35;98719.63;;;8.86;77.18
68137;BME280;54939;50.826;9.030;2023-02-19T02:11:05;98715.16;;;8.87;77.02
68137;BME280;54939;50.826;9.030;2023-02-19T02:11:35;98716.97;;;8.86;77.22
68137;BME280;54939;50.826;9.030;2023-02-19T02:12:07;98722.28;;;8.86;77.21
68137;BME280;54939;50.826;9.030;2023-02-19T02:12:37;98725.78;;;8.87;77.38
68137;BME280;54939;50.826;9.030;2023-02-19T02:13:07;98725.78;;;8.87;77.15
68137;BME280;54939;50.826;9.030;2023-02-19T02:13:37;98720.47;;;8.87;77.17
68137;BME280;54939;50.826;9.030;2023-02-19T02:14:09;98717.81;;;8.87;77.03
68137;BME280;54939;50.826;9.030;2023-02-19T02:14:40;98720.47;;;8.87;76.80
68137;BME280;54939;50.826;9.030;2023-02-19T02:15:12;98719.50;;;8.88;77.32
68137;BME280;54939;50.826;9.030;2023-02-19T02:15:46;98720.47;;;8.87;76.88
68137;BME280;54939;50.826;9.030;2023-02-19T02:17:33;98726.63;;;8.87;77.01
68137;BME280;54939;50.826;9.030;2023-02-19T02:17:56;98721.44;;;8.86;76.93
68137;BME280;54939;50.826;9.030;2023-02-19T02:19:22;98723.97;;;8.87;77.35
68137;BME280;54939;50.826;9.030;2023-02-19T02:21:22;98716.00;;;8.87;76.75
68137;BME280;54939;50.826;9.030;2023-02-19T02:21:29;98715.00;;;8.88;76.79
68137;BME280;54939;50.826;9.030;2023-02-19T02:25:38;98709.81;;;8.87;77.30
68137;BME280;54939;50.826;9.030;2023-02-19T02:26:21;98708.00;;;8.87;76.84
68137;BME280;54939;50.826;9.030;2023-02-19T02:26:57;98717.81;;;8.87;76.78
68137;BME280;54939;50.826;9.030;2023-02-19T02:27:50;98712.50;;;8.87;77.24
68137;BME280;54939;50.826;9.030;2023-02-19T02:28:46;98722.28;;;8.86;77.08
68137;BME280;54939;50.826;9.030;2023-02-19T02:29:27;98717.81;;;8.87;76.91
68137;BME280;54939;50.826;9.030;2023-02-19T02:30:46;98709.81;;;8.87;77.43
68137;BME280;54939;50.826;9.030;2023-02-19T02:31:20;98707.03;;;8.88;77.01
68137;BME280;54939;50.826;9.030;2023-02-19T02:31:58;98712.34;;;8.88;76.93
68137;BME280;54939;50.826;9.030;2023-02-19T02:32:34;98701.69;;;8.88;77.35
68137;BME280;54939;50.826;9.030;2023-02-19T02:34:38;98696.50;;;8.87;76.55
68137;BME280;54939;50.826;9.030;2023-02-19T02:35:10;98704.50;;;8.87;77.11
68137;BME280;54939;50.826;9.030;2023-02-19T02:35:47;98696.38;;;8.88;76.78
68137;BME280;54939;50.826;9.030;2023-02-19T02:36:50;98694.69;;;8.87;77.12
68137;BME280;54939;50.826;9.030;2023-02-19T02:37:22;98696.38;;;8.88;76.78
68137;BME280;54939;50.826;9.030;2023-02-19T02:37:55;98692.03;;;8.87;76.74
68137;BME280;54939;50.826;9.030;2023-02-19T02:38:28;98693.84;;;8.87;77.08
68137;BME280;54939;50.826;9.030;2023-02-19T02:38:58;98688.53;;;8.87;77.17
68137;BME280;54939;50.826;9.030;2023-02-19T02:39:29;98699.19;;;8.87;76.64
68137;BME280;54939;50.826;9.030;2023-02-19T02:40:01;98692.03;;;8.87;77.25
68137;BME280;54939;50.826;9.030;2023-02-19T02:40:32;98698.19;;;8.88;76.90
68137;BME280;54939;50.826;9.030;2023-02-19T02:41:03;98696.38;;;8.88;77.01
68137;BME280;54939;50.826;9.030;2023-02-19T02:41:34;98702.53;;;8.89;77.37
68137;BME280;54939;50.826;9.030;2023-02-19T02:42:04;98698.06;;;8.89;77.02
68137;BME280;54939;50.826;9.030;2023-02-19T02:42:55;98701.69;;;8.88;76.72
68137;BME280;54939;50.826;9.030;2023-02-19T02:43:25;98693.72;;;8.88;76.59
68137;BME280;54939;50.826;9.030;2023-02-19T02:43:55;98700.72;;;8.89;77.06
68137;BME280;54939;50.826;9.030;2023-02-19T02:44:32;98698.06;;;8.89;77.26
68137;BME280;54939;50.826;9.030;2023-02-19T02:45:14;98699.88;;;8.89;77.43
68137;BME280;54939;50.826;9.030;2023-02-19T02:46:05;98698.91;;;8.90;76.85
68137;BME280;54939;50.826;9.030;2023-02-19T02:46:36;98702.53;;;8.89;76.96
68137;BME280;54939;50.826;9.030;2023-02-19T02:47:09;98698.06;;;8.89;77.16
68137;BME280;54939;50.826;9.030;2023-02-19T02:48:04;98702.53;;;8.89;76.97
68137;BME280;54939;50.826;9.030;2023-02-19T02:48:44;98700.72;;;8.89;77.25
68137;BME280;54939;50.826;9.030;2023-02-19T02:49:16;98707.88;;;8.89;77.05
68137;BME280;54939;50.826;9.030;2023-02-19T02:49:48;98704.22;;;8.90;77.04
68137;BME280;54939;50.826;9.030;2023-02-19T02:50:36;98698.06;;;8.89;77.34
68137;BME280;54939;50.826;9.030;2023-02-19T02:51:10;98697.22;;;8.89;77.17
68137;BME280;54939;50.826;9.030;2023-02-19T02:51:42;98691.06;;;8.88;77.14
68137;BME280;54939;50.826;9.030;2023-02-19T02:52:14;98699.75;;;8.90;77.15
68137;BME280;54939;50.826;9.030;2023-02-19T02:53:07;98699.88;;;8.89;77.40
68137;BME280;54939;50.826;9.030;2023-02-19T02:55:06;98698.06;;;8.89;77.27
68137;BME280;54939;50.826;9.030;2023-02-19T02:55:40;98693.72;;;8.88;76.73
68137;BME280;54939;50.826;9.030;2023-02-19T02:56:12;98696.38;;;8.88;77.12
68137;BME280;54939;50.826;9.030;2023-02-19T02:56:43;98702.53;;;8.89;77.46
68137;BME280;54939;50.826;9.030;2023-02-19T02:57:15;98693.72;;;8.88;76.82
68137;BME280;54939;50.826;9.030;2023-02-19T02:57:46;98708.72;;;8.89;77.34
68137;BME280;54939;50.826;9.030;2023-02-19T02:58:16;98698.06;;;8.89;76.94
68137;BME280;54939;50.826;9.030;2023-02-19T02:58:47;98691.91;;;8.89;77.39
68137;BME280;54939;50.826;9.030;2023-02-19T02:59:21;98701.69;;;8.88;77.24
68137;BME280;54939;50.826;9.030;2023-02-19T02:59:52;98697.22;;;8.89;76.95
68137;BME280;54939;50.826;9.030;2023-02-19T03:00:23;98695.41;;;8.89;76.93
68137;BME280;54939;50.826;9.030;2023-02-19T03:00:55;98701.69;;;8.88;76.95
68137;BME280;54939;50.826;9.030;2023-02-19T03:02:06;98696.38;;;8.88;77.01
68137;BME280;54939;50.826;9.030;2023-02-19T03:02:42;98686.56;;;8.89;77.28
68137;BME280;54939;50.826;9.030;2023-02-19T03:03:13;98689.22;;;8.89;76.84
68137;BME280;54939;50.826;9.030;2023-02-19T03:03:44;98695.53;;;8.88;76.81
68137;BME280;54939;50.826;9.030;2023-02-19T03:04:24;98694.56;;;8.89;77.17
68137;BME280;54939;50.826;9.030;2023-02-19T03:05:02;98684.03;;;8.87;76.64
68137;BME280;54939;50.826;9.030;2023-02-19T03:05:53;98699.03;;;8.88;77.33
68137;BME280;54939;50.826;9.030;2023-02-19T03:06:28;98693.59;;;8.90;76.59